Ilyas Efendiyev — 9HES8 — position and weather

sailwx.info

Track history (hours):
 
Tides and Currents Weather Stations Pressure Air Temp Water Temp Dewpoint Dewpoint Depression Visibility Wind Speed Wind Dir Waves Ship Positions

Ilyas Efendiyev

Last reported at 2015-Apr-26 17:25 UTC. Time now 2015-Apr-27 22:17 UTC.
Position N 38°26' W 009°60'.

Length 140 m; draft 4.7 m.

Type: Cargo ship. MMSI: 215901000.

Date/timePositionNaut miles runAvg speedWind from/ knotsBaromVisibWave heightAir tempDewpointWater temp
2015-Apr-26 17:25N 38°26' W 009°60'7 8.3
2015-Apr-26 16:31N 38°34' W 010°02'8 8.2
2015-Apr-26 15:32N 38°41' W 010°05'8 7.7
2015-Apr-26 14:32N 38°49' W 010°05'8 7.6
2015-Apr-26 13:30N 38°57' W 010°04'7 7.3
2015-Apr-26 12:33N 39°04' W 010°03'8 7.4
2015-Apr-26 11:32N 39°11' W 010°01'  
2015-Apr-21 15:12N 50°17' W 001°20'1011.7
2015-Apr-21 14:19N 50°20' W 001°05'48 6.9
2015-Apr-21 07:23N 50°33' E 000°07'8 9.4
2015-Apr-21 06:32N 50°35' E 000°19'1010.0
2015-Apr-21 05:31N 50°38' E 000°34'9 9.6
2015-Apr-21 04:33N 50°43' E 000°46'10 8.6
2015-Apr-21 03:21N 50°50' E 000°59'13 6.9
2015-Apr-21 01:26N 50°58' E 001°16'5 5.6
2015-Apr-21 00:33N 51°01' E 001°21'7 7.0
2015-Apr-20 23:33N 51°06' E 001°30'9 9.2
2015-Apr-20 22:34N 51°13' E 001°38'10 9.9
2015-Apr-20 21:34N 51°23' E 001°33'8 8.3
2015-Apr-20 20:33N 51°28' E 001°22'8 8.4
2015-Apr-20 19:33N 51°29' E 001°09'9 8.8
2015-Apr-20 18:33N 51°29' E 000°55'10 9.6
2015-Apr-20 17:34N 51°30' E 000°40'10 9.6
2015-Apr-20 16:34N 51°27' E 000°25'3 3.4
2015-Apr-20 15:34N 51°28' E 000°20'0 0.0
2015-Apr-20 14:32N 51°28' E 000°20'0 0.0
2015-Apr-20 13:28N 51°28' E 000°20'0 0.0
2015-Apr-20 12:33N 51°28' E 000°20'0 0.0
2015-Apr-20 11:34N 51°28' E 000°20'0 0.0
2015-Apr-20 10:30N 51°28' E 000°20'0 0.0
2015-Apr-20 09:33N 51°28' E 000°20'0 0.0
2015-Apr-20 08:33N 51°28' E 000°20'0 0.0
2015-Apr-20 07:31N 51°28' E 000°20'0 0.0
2015-Apr-20 06:29N 51°28' E 000°20'0 0.0
2015-Apr-20 05:27N 51°28' E 000°20'0 0.0
2015-Apr-20 04:33N 51°28' E 000°20'0 0.0
2015-Apr-20 03:33N 51°28' E 000°20'0 0.0
2015-Apr-20 02:33N 51°28' E 000°20'0 0.0
2015-Apr-20 01:34N 51°28' E 000°20'0 0.0
2015-Apr-20 00:33N 51°28' E 000°20'0 0.0
2015-Apr-19 23:34N 51°28' E 000°20'0 0.0
2015-Apr-19 22:33N 51°28' E 000°20'0 0.0
2015-Apr-19 21:28N 51°28' E 000°20'0 0.0
2015-Apr-19 20:32N 51°28' E 000°20'0 0.0
2015-Apr-19 19:34N 51°28' E 000°20'0 0.0
2015-Apr-19 18:33N 51°28' E 000°20'0 0.0
2015-Apr-19 17:33N 51°28' E 000°20'0 0.0
2015-Apr-19 16:34N 51°28' E 000°20'0 0.0
2015-Apr-19 15:33N 51°28' E 000°20'0 0.0
2015-Apr-19 14:34N 51°28' E 000°20'0 0.0
2015-Apr-19 13:34N 51°28' E 000°20'0 0.0
2015-Apr-19 12:33N 51°28' E 000°20'0 0.0
2015-Apr-19 11:33N 51°28' E 000°20'0 0.0
2015-Apr-19 10:34N 51°28' E 000°20'0 0.0
2015-Apr-19 09:34N 51°28' E 000°20'0 0.0
2015-Apr-19 08:34N 51°28' E 000°20'0 0.0
2015-Apr-19 07:34N 51°28' E 000°20'0 0.0
2015-Apr-19 06:32N 51°28' E 000°20'0 0.0
2015-Apr-19 05:33N 51°28' E 000°20'0 0.0
2015-Apr-19 04:33N 51°28' E 000°20'0 0.0
2015-Apr-19 03:34N 51°28' E 000°20'0 0.0
2015-Apr-19 02:31N 51°28' E 000°20'0 0.0
2015-Apr-19 01:34N 51°28' E 000°20'0 0.0
2015-Apr-19 00:33N 51°28' E 000°20'0 0.0
2015-Apr-18 23:34N 51°28' E 000°20'0 0.0
2015-Apr-18 22:33N 51°28' E 000°20'0 0.0
2015-Apr-18 21:33N 51°28' E 000°20'0 0.0
2015-Apr-18 20:34N 51°28' E 000°20'0 0.0
2015-Apr-18 19:33N 51°28' E 000°20'0 0.0
2015-Apr-18 18:34N 51°28' E 000°20'0 0.0
2015-Apr-18 17:31N 51°28' E 000°20'0 0.0
2015-Apr-18 16:31N 51°28' E 000°20'0 0.0
2015-Apr-18 15:34N 51°28' E 000°20'0 0.0
2015-Apr-18 14:31N 51°28' E 000°20'0 0.0
2015-Apr-18 13:34N 51°28' E 000°20'0 0.0
2015-Apr-18 12:31N 51°28' E 000°20'0 0.0
2015-Apr-18 11:33N 51°28' E 000°20'0 0.0
2015-Apr-18 10:33N 51°28' E 000°20'0 0.0
2015-Apr-18 09:33N 51°28' E 000°20'0 0.0
2015-Apr-18 08:33N 51°28' E 000°20'0 0.0
2015-Apr-18 07:33N 51°28' E 000°20'0 0.0
2015-Apr-18 06:33N 51°28' E 000°20'0 0.0
2015-Apr-18 05:34N 51°28' E 000°20'0 0.0
2015-Apr-18 04:33N 51°28' E 000°20'0 0.0
2015-Apr-18 03:33N 51°28' E 000°20'0 0.0
2015-Apr-18 02:33N 51°28' E 000°20'0 0.0
2015-Apr-18 01:34N 51°28' E 000°20'0 0.0
2015-Apr-18 00:34N 51°28' E 000°20'0 0.0
2015-Apr-17 23:32N 51°28' E 000°20'0 0.0
2015-Apr-17 22:33N 51°28' E 000°20'0 0.0
2015-Apr-17 21:31N 51°28' E 000°20'0 0.0
2015-Apr-17 20:31N 51°28' E 000°20'0 0.0
2015-Apr-17 19:33N 51°28' E 000°20'0 0.0
2015-Apr-17 18:34N 51°28' E 000°20'0 0.0
2015-Apr-17 17:34N 51°28' E 000°20'0 0.0
2015-Apr-17 16:33N 51°28' E 000°20'0 0.0
2015-Apr-17 15:33N 51°28' E 000°20'0 0.0
2015-Apr-17 14:34N 51°28' E 000°20'0 0.0
2015-Apr-17 13:33N 51°28' E 000°20'0 0.0
2015-Apr-17 12:33N 51°28' E 000°20'0 0.0
2015-Apr-17 11:34N 51°28' E 000°20'0 0.0
2015-Apr-17 10:34N 51°28' E 000°20'0 0.0
2015-Apr-17 09:34N 51°28' E 000°20'0 0.0
2015-Apr-17 08:32N 51°28' E 000°20'1 0.9
2015-Apr-17 07:33N 51°27' E 000°20'8 7.9
2015-Apr-17 06:33N 51°30' E 000°32'9 8.6
2015-Apr-17 05:33N 51°30' E 000°46'8 7.8
2015-Apr-17 04:31N 51°29' E 000°59'7 7.4
2015-Apr-17 03:34N 51°29' E 001°10'7 6.8
2015-Apr-17 02:33N 51°29' E 001°21'7 6.5
2015-Apr-17 01:33N 51°27' E 001°31'7 6.7
2015-Apr-17 00:33N 51°24' E 001°41'7 6.8
2015-Apr-16 23:34N 51°27' E 001°51'7 7.1
2015-Apr-16 22:33N 51°23' E 002°01'9 9.4
2015-Apr-16 21:33N 51°15' E 001°53'9 9.1
2015-Apr-16 20:33N 51°09' E 001°43'8 7.9
2015-Apr-16 19:33N 51°03' E 001°35'6 6.3
2015-Apr-16 18:34N 50°58' E 001°28'5 4.7
2015-Apr-16 17:30N 50°54' E 001°24'  
Track history (hours):
 
Tides and Currents Weather Stations Pressure Air Temp Water Temp Dewpoint Dewpoint Depression Visibility Wind Speed Wind Dir Waves Ship Positions

Ilyas Efendiyev

Last reported at 2015-Apr-26 17:25 UTC. Time now 2015-Apr-27 22:17 UTC.
Position N 38°26' W 009°60'.

Length 140 m; draft 4.7 m.

Type: Cargo ship. MMSI: 215901000.

Date/timePositionNaut miles runAvg speedWind from/ knotsBaromVisibWave heightAir tempDewpointWater temp
2015-Apr-26 17:25N 38°26' W 009°60'7 8.3
2015-Apr-26 16:31N 38°34' W 010°02'8 8.2
2015-Apr-26 15:32N 38°41' W 010°05'8 7.7
2015-Apr-26 14:32N 38°49' W 010°05'8 7.6
2015-Apr-26 13:30N 38°57' W 010°04'7 7.3
2015-Apr-26 12:33N 39°04' W 010°03'8 7.4
2015-Apr-26 11:32N 39°11' W 010°01'  
2015-Apr-21 15:12N 50°17' W 001°20'1011.7
2015-Apr-21 14:19N 50°20' W 001°05'48 6.9
2015-Apr-21 07:23N 50°33' E 000°07'8 9.4
2015-Apr-21 06:32N 50°35' E 000°19'1010.0
2015-Apr-21 05:31N 50°38' E 000°34'9 9.6
2015-Apr-21 04:33N 50°43' E 000°46'10 8.6
2015-Apr-21 03:21N 50°50' E 000°59'13 6.9
2015-Apr-21 01:26N 50°58' E 001°16'5 5.6
2015-Apr-21 00:33N 51°01' E 001°21'7 7.0
2015-Apr-20 23:33N 51°06' E 001°30'9 9.2
2015-Apr-20 22:34N 51°13' E 001°38'10 9.9
2015-Apr-20 21:34N 51°23' E 001°33'8 8.3
2015-Apr-20 20:33N 51°28' E 001°22'8 8.4
2015-Apr-20 19:33N 51°29' E 001°09'9 8.8
2015-Apr-20 18:33N 51°29' E 000°55'10 9.6
2015-Apr-20 17:34N 51°30' E 000°40'10 9.6
2015-Apr-20 16:34N 51°27' E 000°25'3 3.4
2015-Apr-20 15:34N 51°28' E 000°20'0 0.0
2015-Apr-20 14:32N 51°28' E 000°20'0 0.0
2015-Apr-20 13:28N 51°28' E 000°20'0 0.0
2015-Apr-20 12:33N 51°28' E 000°20'0 0.0
2015-Apr-20 11:34N 51°28' E 000°20'0 0.0
2015-Apr-20 10:30N 51°28' E 000°20'0 0.0
2015-Apr-20 09:33N 51°28' E 000°20'0 0.0
2015-Apr-20 08:33N 51°28' E 000°20'0 0.0
2015-Apr-20 07:31N 51°28' E 000°20'0 0.0
2015-Apr-20 06:29N 51°28' E 000°20'0 0.0
2015-Apr-20 05:27N 51°28' E 000°20'0 0.0
2015-Apr-20 04:33N 51°28' E 000°20'0 0.0
2015-Apr-20 03:33N 51°28' E 000°20'0 0.0
2015-Apr-20 02:33N 51°28' E 000°20'0 0.0
2015-Apr-20 01:34N 51°28' E 000°20'0 0.0
2015-Apr-20 00:33N 51°28' E 000°20'0 0.0
2015-Apr-19 23:34N 51°28' E 000°20'0 0.0
2015-Apr-19 22:33N 51°28' E 000°20'0 0.0
2015-Apr-19 21:28N 51°28' E 000°20'0 0.0
2015-Apr-19 20:32N 51°28' E 000°20'0 0.0
2015-Apr-19 19:34N 51°28' E 000°20'0 0.0
2015-Apr-19 18:33N 51°28' E 000°20'0 0.0
2015-Apr-19 17:33N 51°28' E 000°20'0 0.0
2015-Apr-19 16:34N 51°28' E 000°20'0 0.0
2015-Apr-19 15:33N 51°28' E 000°20'0 0.0
2015-Apr-19 14:34N 51°28' E 000°20'0 0.0
2015-Apr-19 13:34N 51°28' E 000°20'0 0.0
2015-Apr-19 12:33N 51°28' E 000°20'0 0.0
2015-Apr-19 11:33N 51°28' E 000°20'0 0.0
2015-Apr-19 10:34N 51°28' E 000°20'0 0.0
2015-Apr-19 09:34N 51°28' E 000°20'0 0.0
2015-Apr-19 08:34N 51°28' E 000°20'0 0.0
2015-Apr-19 07:34N 51°28' E 000°20'0 0.0
2015-Apr-19 06:32N 51°28' E 000°20'0 0.0
2015-Apr-19 05:33N 51°28' E 000°20'0 0.0
2015-Apr-19 04:33N 51°28' E 000°20'0 0.0
2015-Apr-19 03:34N 51°28' E 000°20'0 0.0
2015-Apr-19 02:31N 51°28' E 000°20'0 0.0
2015-Apr-19 01:34N 51°28' E 000°20'0 0.0
2015-Apr-19 00:33N 51°28' E 000°20'0 0.0
2015-Apr-18 23:34N 51°28' E 000°20'0 0.0
2015-Apr-18 22:33N 51°28' E 000°20'0 0.0
2015-Apr-18 21:33N 51°28' E 000°20'0 0.0
2015-Apr-18 20:34N 51°28' E 000°20'0 0.0
2015-Apr-18 19:33N 51°28' E 000°20'0 0.0
2015-Apr-18 18:34N 51°28' E 000°20'0 0.0
2015-Apr-18 17:31N 51°28' E 000°20'0 0.0
2015-Apr-18 16:31N 51°28' E 000°20'0 0.0
2015-Apr-18 15:34N 51°28' E 000°20'0 0.0
2015-Apr-18 14:31N 51°28' E 000°20'0 0.0
2015-Apr-18 13:34N 51°28' E 000°20'0 0.0
2015-Apr-18 12:31N 51°28' E 000°20'0 0.0
2015-Apr-18 11:33N 51°28' E 000°20'0 0.0
2015-Apr-18 10:33N 51°28' E 000°20'0 0.0
2015-Apr-18 09:33N 51°28' E 000°20'0 0.0
2015-Apr-18 08:33N 51°28' E 000°20'0 0.0
2015-Apr-18 07:33N 51°28' E 000°20'0 0.0
2015-Apr-18 06:33N 51°28' E 000°20'0 0.0
2015-Apr-18 05:34N 51°28' E 000°20'0 0.0
2015-Apr-18 04:33N 51°28' E 000°20'0 0.0
2015-Apr-18 03:33N 51°28' E 000°20'0 0.0
2015-Apr-18 02:33N 51°28' E 000°20'0 0.0
2015-Apr-18 01:34N 51°28' E 000°20'0 0.0
2015-Apr-18 00:34N 51°28' E 000°20'0 0.0
2015-Apr-17 23:32N 51°28' E 000°20'0 0.0
2015-Apr-17 22:33N 51°28' E 000°20'0 0.0
2015-Apr-17 21:31N 51°28' E 000°20'0 0.0
2015-Apr-17 20:31N 51°28' E 000°20'0 0.0
2015-Apr-17 19:33N 51°28' E 000°20'0 0.0
2015-Apr-17 18:34N 51°28' E 000°20'0 0.0
2015-Apr-17 17:34N 51°28' E 000°20'0 0.0
2015-Apr-17 16:33N 51°28' E 000°20'0 0.0
2015-Apr-17 15:33N 51°28' E 000°20'0 0.0
2015-Apr-17 14:34N 51°28' E 000°20'0 0.0
2015-Apr-17 13:33N 51°28' E 000°20'0 0.0
2015-Apr-17 12:33N 51°28' E 000°20'0 0.0
2015-Apr-17 11:34N 51°28' E 000°20'0 0.0
2015-Apr-17 10:34N 51°28' E 000°20'0 0.0
2015-Apr-17 09:34N 51°28' E 000°20'0 0.0
2015-Apr-17 08:32N 51°28' E 000°20'1 0.9
2015-Apr-17 07:33N 51°27' E 000°20'8 7.9
2015-Apr-17 06:33N 51°30' E 000°32'9 8.6
2015-Apr-17 05:33N 51°30' E 000°46'8 7.8
2015-Apr-17 04:31N 51°29' E 000°59'7 7.4
2015-Apr-17 03:34N 51°29' E 001°10'7 6.8
2015-Apr-17 02:33N 51°29' E 001°21'7 6.5
2015-Apr-17 01:33N 51°27' E 001°31'7 6.7
2015-Apr-17 00:33N 51°24' E 001°41'7 6.8
2015-Apr-16 23:34N 51°27' E 001°51'7 7.1
2015-Apr-16 22:33N 51°23' E 002°01'9 9.4
2015-Apr-16 21:33N 51°15' E 001°53'9 9.1
2015-Apr-16 20:33N 51°09' E 001°43'8 7.9
2015-Apr-16 19:33N 51°03' E 001°35'6 6.3
2015-Apr-16 18:34N 50°58' E 001°28'5 4.7
2015-Apr-16 17:30N 50°54' E 001°24'  

Dump ship's entire track history